PWSweather.com
Personal Weather Stations
Station Observations
DW1039
Liberty & Fairfield Townships, Hamilton, OH 45011

Liberty & Fairfield TownshipsHamilton, OH 45011

Lat: 39.3933, Lon: -84.477

Elevation: 780

Station Type: Davis Vantage Pro2 (Daytime Fan Aspirated)

http://www.lfweathercenter.com/

High Low Average
Temperature 88.3°F31.3°F 67.8°F19.9°F 76.4°F24.7°F
Dew Point 74.1°F23.4°F 63.9°F17.7°F 69.4°F20.8°F
Winds 12.0 mph S19.3 mph S Calm Calm 0.9 mph 1.4 mph
Wind Gusts 18.0 mph29.0 mph -- 3.6 mph5.8 mph
Humidity 88% 59% 80%
Pressure 29.93 in1013.50 in 29.84 in1010.50 in -
Precipitation 1.22 in31.00 in - -
Hour Temp Dew Point Humidity Winds Wind Gusts Pressure Precip Precip Rate Daily Precip Total
12:00 AM 71.7°F22.1°C 67.3°F19.6°C 86% Calm Calm -- 29.88 in1011.9 mb 0.00 in0.0 mm 0.00 in0.0 mm 0.00 in0.0 mm
12:10 AM 72.0°F22.2°C 67.6°F19.8°C 86% Calm Calm -- 29.88 in1011.9 mb 0.00 in0.0 mm 0.00 in0.0 mm 0.00 in0.0 mm
12:20 AM 72.0°F22.2°C 67.6°F19.8°C 86% Calm Calm -- 29.88 in1011.9 mb 0.00 in0.0 mm 0.00 in0.0 mm 0.00 in0.0 mm
12:30 AM 71.9°F22.2°C 67.5°F19.7°C 86% Calm Calm -- 29.88 in1011.9 mb 0.00 in0.0 mm 0.00 in0.0 mm 0.00 in0.0 mm
12:40 AM 71.8°F22.1°C 67.4°F19.7°C 86% Calm Calm -- 29.89 in1012.2 mb 0.00 in0.0 mm 0.00 in0.0 mm 0.00 in0.0 mm
12:50 AM 71.7°F22.1°C 67.3°F19.6°C 86% Calm Calm -- 29.89 in1012.2 mb 0.00 in0.0 mm 0.00 in0.0 mm 0.00 in0.0 mm
01:00 AM 71.6°F22.0°C 67.2°F19.6°C 86% Calm Calm -- 29.89 in1012.2 mb 0.00 in0.0 mm 0.00 in0.0 mm 0.00 in0.0 mm
01:10 AM 71.5°F21.9°C 67.1°F19.5°C 86% Calm Calm -- 29.88 in1011.9 mb 0.00 in0.0 mm 0.00 in0.0 mm 0.00 in0.0 mm
01:20 AM 71.5°F21.9°C 67.1°F19.5°C 86% Calm Calm -- 29.89 in1012.2 mb 0.00 in0.0 mm 0.00 in0.0 mm 0.00 in0.0 mm
01:30 AM 71.5°F21.9°C 67.1°F19.5°C 86% Calm Calm -- 29.89 in1012.2 mb 0.00 in0.0 mm 0.00 in0.0 mm 0.00 in0.0 mm
01:40 AM 71.6°F22.0°C 67.2°F19.6°C 86% Calm Calm -- 29.89 in1012.2 mb 0.00 in0.0 mm 0.00 in0.0 mm 0.00 in0.0 mm
01:50 AM 72.0°F22.2°C 67.9°F19.9°C 87% Calm Calm 3.0 mph4.8 kmh 29.89 in1012.2 mb 0.00 in0.0 mm 0.00 in0.0 mm 0.00 in0.0 mm
02:00 AM 72.4°F22.4°C 68.3°F20.2°C 87% Calm Calm 1.0 mph1.6 kmh 29.89 in1012.2 mb 0.00 in0.0 mm 0.00 in0.0 mm 0.00 in0.0 mm
02:10 AM 72.1°F22.3°C 67.7°F19.8°C 86% Calm Calm -- 29.89 in1012.2 mb 0.00 in0.0 mm 0.00 in0.0 mm 0.00 in0.0 mm
02:20 AM 71.5°F21.9°C 67.1°F19.5°C 86% Calm Calm -- 29.89 in1012.2 mb 0.00 in0.0 mm 0.00 in0.0 mm 0.00 in0.0 mm
02:30 AM 71.1°F21.7°C 67.0°F19.4°C 87% Calm Calm -- 29.89 in1012.2 mb 0.00 in0.0 mm 0.00 in0.0 mm 0.00 in0.0 mm
02:40 AM 70.8°F21.6°C 66.7°F19.3°C 87% Calm Calm -- 29.88 in1011.9 mb 0.00 in0.0 mm 0.00 in0.0 mm 0.00 in0.0 mm
02:50 AM 70.6°F21.4°C 66.6°F19.2°C 87% Calm Calm -- 29.88 in1011.9 mb 0.00 in0.0 mm 0.00 in0.0 mm 0.00 in0.0 mm
03:00 AM 70.6°F21.4°C 66.6°F19.2°C 87% Calm Calm -- 29.88 in1011.9 mb 0.00 in0.0 mm 0.00 in0.0 mm 0.00 in0.0 mm
03:10 AM 70.5°F21.4°C 66.5°F19.2°C 87% Calm Calm -- 29.88 in1011.9 mb 0.00 in0.0 mm 0.00 in0.0 mm 0.00 in0.0 mm
03:20 AM 70.4°F21.3°C 66.4°F19.1°C 87% Calm Calm -- 29.88 in1011.9 mb 0.00 in0.0 mm 0.00 in0.0 mm 0.00 in0.0 mm
03:30 AM 70.3°F21.3°C 66.3°F19.1°C 87% Calm Calm -- 29.89 in1012.2 mb 0.00 in0.0 mm 0.00 in0.0 mm 0.00 in0.0 mm
03:40 AM 70.1°F21.2°C 66.1°F18.9°C 87% Calm Calm -- 29.89 in1012.2 mb 0.00 in0.0 mm 0.00 in0.0 mm 0.00 in0.0 mm
03:50 AM 69.9°F21.1°C 65.9°F18.8°C 87% Calm Calm -- 29.88 in1011.9 mb 0.00 in0.0 mm 0.00 in0.0 mm 0.00 in0.0 mm
04:00 AM 69.6°F20.9°C 65.6°F18.7°C 87% Calm Calm -- 29.88 in1011.9 mb 0.00 in0.0 mm 0.00 in0.0 mm 0.00 in0.0 mm
04:10 AM 69.7°F20.9°C 65.7°F18.7°C 87% Calm Calm -- 29.88 in1011.9 mb 0.00 in0.0 mm 0.00 in0.0 mm 0.00 in0.0 mm
04:20 AM 69.4°F20.8°C 65.4°F18.6°C 87% Calm Calm -- 29.89 in1012.2 mb 0.00 in0.0 mm 0.00 in0.0 mm 0.00 in0.0 mm
04:30 AM 69.2°F20.7°C 65.2°F18.4°C 87% Calm Calm -- 29.88 in1011.9 mb 0.00 in0.0 mm 0.00 in0.0 mm 0.00 in0.0 mm
04:40 AM 69.1°F20.6°C 65.1°F18.4°C 87% Calm Calm -- 29.88 in1011.9 mb 0.01 in0.3 mm 0.06 in1.5 mm 0.01 in0.3 mm
04:50 AM 69.0°F20.6°C 65.0°F18.3°C 87% Calm Calm -- 29.88 in1011.9 mb 0.01 in0.3 mm 0.00 in0.0 mm 0.01 in0.3 mm
05:00 AM 68.9°F20.5°C 64.9°F18.3°C 87% Calm Calm -- 29.89 in1012.2 mb 0.01 in0.3 mm 0.00 in0.0 mm 0.01 in0.3 mm
05:10 AM 68.9°F20.5°C 65.2°F18.4°C 88% Calm Calm -- 29.89 in1012.2 mb 0.01 in0.3 mm 0.00 in0.0 mm 0.01 in0.3 mm
05:20 AM 68.6°F20.3°C 64.6°F18.1°C 87% Calm Calm -- 29.89 in1012.2 mb 0.01 in0.3 mm 0.00 in0.0 mm 0.01 in0.3 mm
05:30 AM 68.6°F20.3°C 64.6°F18.1°C 87% Calm Calm -- 29.89 in1012.2 mb 0.01 in0.3 mm 0.00 in0.0 mm 0.01 in0.3 mm
05:40 AM 68.8°F20.4°C 65.1°F18.4°C 88% Calm Calm -- 29.89 in1012.2 mb 0.00 in0.0 mm 0.00 in0.0 mm 0.01 in0.3 mm
05:50 AM 68.5°F20.3°C 64.5°F18.1°C 87% Calm Calm -- 29.89 in1012.2 mb 0.00 in0.0 mm 0.00 in0.0 mm 0.01 in0.3 mm
06:00 AM 68.1°F20.1°C 64.4°F18.0°C 88% Calm Calm -- 29.90 in1012.5 mb 0.00 in0.0 mm 0.00 in0.0 mm 0.01 in0.3 mm
06:10 AM 67.9°F19.9°C 63.9°F17.7°C 87% Calm Calm -- 29.90 in1012.5 mb 0.00 in0.0 mm 0.00 in0.0 mm 0.01 in0.3 mm
06:20 AM 67.8°F19.9°C 64.1°F17.8°C 88% Calm Calm -- 29.90 in1012.5 mb 0.00 in0.0 mm 0.00 in0.0 mm 0.01 in0.3 mm
06:30 AM 67.8°F19.9°C 64.1°F17.8°C 88% Calm Calm -- 29.90 in1012.5 mb 0.00 in0.0 mm 0.00 in0.0 mm 0.01 in0.3 mm
06:40 AM 68.4°F20.2°C 64.7°F18.2°C 88% Calm Calm -- 29.90 in1012.5 mb 0.00 in0.0 mm 0.00 in0.0 mm 0.01 in0.3 mm
06:50 AM 68.1°F20.1°C 64.4°F18.0°C 88% Calm Calm -- 29.90 in1012.5 mb 0.00 in0.0 mm 0.00 in0.0 mm 0.01 in0.3 mm
07:00 AM 68.1°F20.1°C 64.4°F18.0°C 88% Calm Calm -- 29.90 in1012.5 mb 0.00 in0.0 mm 0.00 in0.0 mm 0.01 in0.3 mm
07:10 AM 68.2°F20.1°C 64.5°F18.1°C 88% Calm Calm -- 29.91 in1012.9 mb 0.00 in0.0 mm 0.00 in0.0 mm 0.01 in0.3 mm
07:20 AM 68.4°F20.2°C 64.7°F18.2°C 88% Calm Calm -- 29.91 in1012.9 mb 0.00 in0.0 mm 0.00 in0.0 mm 0.01 in0.3 mm
07:30 AM 69.1°F20.6°C 65.4°F18.6°C 88% Calm Calm -- 29.91 in1012.9 mb 0.00 in0.0 mm 0.00 in0.0 mm 0.01 in0.3 mm
07:40 AM 69.3°F20.7°C 65.6°F18.7°C 88% Calm Calm -- 29.92 in1013.2 mb 0.00 in0.0 mm 0.00 in0.0 mm 0.01 in0.3 mm
07:50 AM 69.7°F20.9°C 66.0°F18.9°C 88% Calm Calm -- 29.92 in1013.2 mb 0.00 in0.0 mm 0.00 in0.0 mm 0.01 in0.3 mm
08:00 AM 70.3°F21.3°C 66.6°F19.2°C 88% Calm Calm -- 29.93 in1013.5 mb 0.00 in0.0 mm 0.00 in0.0 mm 0.01 in0.3 mm
08:10 AM 70.7°F21.5°C 67.0°F19.4°C 88% Calm Calm 2.0 mph3.2 kmh 29.93 in1013.5 mb 0.00 in0.0 mm 0.00 in0.0 mm 0.01 in0.3 mm
08:20 AM 71.2°F21.8°C 67.5°F19.7°C 88% Calm Calm -- 29.93 in1013.5 mb 0.00 in0.0 mm 0.00 in0.0 mm 0.01 in0.3 mm
08:30 AM 71.4°F21.9°C 67.7°F19.8°C 88% Calm Calm -- 29.93 in1013.5 mb 0.00 in0.0 mm 0.00 in0.0 mm 0.01 in0.3 mm
08:40 AM 71.8°F22.1°C 68.1°F20.1°C 88% Calm Calm -- 29.92 in1013.2 mb 0.00 in0.0 mm 0.00 in0.0 mm 0.01 in0.3 mm
08:50 AM 72.2°F22.3°C 68.5°F20.3°C 88% Calm Calm 4.0 mph6.4 kmh 29.92 in1013.2 mb 0.00 in0.0 mm 0.00 in0.0 mm 0.01 in0.3 mm
09:00 AM 72.8°F22.7°C 69.0°F20.6°C 88% Calm Calm 4.0 mph6.4 kmh 29.92 in1013.2 mb 0.00 in0.0 mm 0.00 in0.0 mm 0.01 in0.3 mm
09:10 AM 73.4°F23.0°C 69.6°F20.9°C 88% Calm Calm -- 29.92 in1013.2 mb 0.00 in0.0 mm 0.00 in0.0 mm 0.01 in0.3 mm
09:20 AM 73.3°F22.9°C 69.5°F20.8°C 88% Calm Calm -- 29.92 in1013.2 mb 0.00 in0.0 mm 0.00 in0.0 mm 0.01 in0.3 mm
09:30 AM 74.1°F23.4°C 70.3°F21.3°C 88% Calm Calm 1.0 mph1.6 kmh 29.92 in1013.2 mb 0.00 in0.0 mm 0.00 in0.0 mm 0.01 in0.3 mm
09:40 AM 74.6°F23.7°C 70.1°F21.2°C 86% Calm Calm 1.0 mph1.6 kmh 29.92 in1013.2 mb 0.00 in0.0 mm 0.00 in0.0 mm 0.01 in0.3 mm
09:50 AM 75.7°F24.3°C 70.9°F21.6°C 85% Calm Calm -- 29.92 in1013.2 mb 0.00 in0.0 mm 0.00 in0.0 mm 0.01 in0.3 mm
10:00 AM 76.8°F24.9°C 71.6°F22.0°C 84% Calm Calm -- 29.92 in1013.2 mb 0.00 in0.0 mm 0.00 in0.0 mm 0.01 in0.3 mm
10:10 AM 77.5°F25.3°C 71.6°F22.0°C 82% Calm Calm 1.0 mph1.6 kmh 29.91 in1012.9 mb 0.00 in0.0 mm 0.00 in0.0 mm 0.01 in0.3 mm
10:20 AM 78.4°F25.8°C 72.5°F22.5°C 82% Calm Calm 3.0 mph4.8 kmh 29.92 in1013.2 mb 0.00 in0.0 mm 0.00 in0.0 mm 0.01 in0.3 mm
10:30 AM 79.9°F26.6°C 73.2°F22.9°C 80% Calm Calm 5.0 mph8.0 kmh 29.92 in1013.2 mb 0.00 in0.0 mm 0.00 in0.0 mm 0.01 in0.3 mm
10:40 AM 80.5°F26.9°C 72.6°F22.6°C 77% Calm Calm 6.0 mph9.7 kmh 29.91 in1012.9 mb 0.00 in0.0 mm 0.00 in0.0 mm 0.01 in0.3 mm
10:50 AM 80.2°F26.8°C 72.7°F22.6°C 78% Calm Calm 4.0 mph6.4 kmh 29.91 in1012.9 mb 0.00 in0.0 mm 0.00 in0.0 mm 0.01 in0.3 mm
11:00 AM 80.8°F27.1°C 73.3°F22.9°C 78% 2.0 mph SSW3.2 kmh SSW 6.0 mph9.7 kmh 29.92 in1013.2 mb 0.00 in0.0 mm 0.00 in0.0 mm 0.01 in0.3 mm
11:10 AM 81.4°F27.4°C 73.9°F23.3°C 78% 3.0 mph S4.8 kmh S 7.0 mph11.3 kmh 29.92 in1013.2 mb 0.00 in0.0 mm 0.00 in0.0 mm 0.01 in0.3 mm
11:20 AM 81.5°F27.5°C 74.0°F23.3°C 78% Calm Calm 5.0 mph8.0 kmh 29.92 in1013.2 mb 0.00 in0.0 mm 0.00 in0.0 mm 0.01 in0.3 mm
11:30 AM 81.9°F27.7°C 73.2°F22.9°C 75% Calm Calm 7.0 mph11.3 kmh 29.92 in1013.2 mb 0.00 in0.0 mm 0.00 in0.0 mm 0.01 in0.3 mm
11:40 AM 81.5°F27.5°C 72.8°F22.7°C 75% Calm Calm 7.0 mph11.3 kmh 29.92 in1013.2 mb 0.00 in0.0 mm 0.00 in0.0 mm 0.01 in0.3 mm
11:50 AM 81.4°F27.4°C 72.3°F22.4°C 74% Calm Calm 6.0 mph9.7 kmh 29.92 in1013.2 mb 0.00 in0.0 mm 0.00 in0.0 mm 0.01 in0.3 mm
12:00 PM 81.8°F27.7°C 72.7°F22.6°C 74% Calm Calm 1.0 mph1.6 kmh 29.92 in1013.2 mb 0.00 in0.0 mm 0.00 in0.0 mm 0.01 in0.3 mm
12:10 PM 82.4°F28.0°C 74.1°F23.4°C 76% 3.0 mph S4.8 kmh S 4.0 mph6.4 kmh 29.92 in1013.2 mb 0.00 in0.0 mm 0.00 in0.0 mm 0.01 in0.3 mm
12:20 PM 83.0°F28.3°C 73.1°F22.8°C 72% 1.0 mph S1.6 kmh S 6.0 mph9.7 kmh 29.92 in1013.2 mb 0.00 in0.0 mm 0.00 in0.0 mm 0.01 in0.3 mm
12:30 PM 83.4°F28.6°C 73.0°F22.8°C 71% Calm Calm 7.0 mph11.3 kmh 29.92 in1013.2 mb 0.00 in0.0 mm 0.00 in0.0 mm 0.01 in0.3 mm
12:40 PM 83.4°F28.6°C 72.6°F22.6°C 70% 2.0 mph SW3.2 kmh SW 7.0 mph11.3 kmh 29.92 in1013.2 mb 0.00 in0.0 mm 0.00 in0.0 mm 0.01 in0.3 mm
12:50 PM 84.0°F28.9°C 72.7°F22.6°C 69% Calm Calm 7.0 mph11.3 kmh 29.92 in1013.2 mb 0.00 in0.0 mm 0.00 in0.0 mm 0.01 in0.3 mm
01:00 PM 82.7°F28.2°C 72.8°F22.7°C 72% 1.0 mph SSW1.6 kmh SSW 6.0 mph9.7 kmh 29.92 in1013.2 mb 0.00 in0.0 mm 0.00 in0.0 mm 0.01 in0.3 mm
01:10 PM 82.4°F28.0°C 72.9°F22.7°C 73% 12.0 mph S19.3 kmh S 18.0 mph29.0 kmh 29.91 in1012.9 mb 0.00 in0.0 mm 0.00 in0.0 mm 0.01 in0.3 mm
01:20 PM 81.3°F27.4°C 71.8°F22.1°C 73% 3.0 mph SW4.8 kmh SW 14.0 mph22.5 kmh 29.91 in1012.9 mb 0.00 in0.0 mm 0.00 in0.0 mm 0.01 in0.3 mm
01:30 PM 81.8°F27.7°C 73.1°F22.8°C 75% 7.0 mph S11.3 kmh S 10.0 mph16.1 kmh 29.90 in1012.5 mb 0.00 in0.0 mm 0.00 in0.0 mm 0.01 in0.3 mm
01:40 PM 82.7°F28.2°C 73.2°F22.9°C 73% Calm Calm 5.0 mph8.0 kmh 29.89 in1012.2 mb 0.00 in0.0 mm 0.00 in0.0 mm 0.01 in0.3 mm
01:50 PM 84.4°F29.1°C 73.6°F23.1°C 70% 5.0 mph SSE8.0 kmh SSE 6.0 mph9.7 kmh 29.90 in1012.5 mb 0.00 in0.0 mm 0.00 in0.0 mm 0.01 in0.3 mm
02:00 PM 85.0°F29.4°C 74.1°F23.4°C 70% 5.0 mph SE8.0 kmh SE 6.0 mph9.7 kmh 29.89 in1012.2 mb 0.00 in0.0 mm 0.00 in0.0 mm 0.01 in0.3 mm
02:10 PM 85.2°F29.6°C 73.5°F23.1°C 68% Calm Calm 8.0 mph12.9 kmh 29.88 in1011.9 mb 0.00 in0.0 mm 0.00 in0.0 mm 0.01 in0.3 mm
02:20 PM 85.4°F29.7°C 73.6°F23.1°C 68% 3.0 mph SE4.8 kmh SE 10.0 mph16.1 kmh 29.88 in1011.9 mb 0.00 in0.0 mm 0.00 in0.0 mm 0.01 in0.3 mm
02:30 PM 85.0°F29.4°C 73.3°F22.9°C 68% 4.0 mph S6.4 kmh S 6.0 mph9.7 kmh 29.88 in1011.9 mb 0.00 in0.0 mm 0.00 in0.0 mm 0.01 in0.3 mm
02:40 PM 84.7°F29.3°C 73.0°F22.8°C 68% Calm Calm 5.0 mph8.0 kmh 29.87 in1011.5 mb 0.00 in0.0 mm 0.00 in0.0 mm 0.01 in0.3 mm
02:50 PM 84.9°F29.4°C 73.2°F22.9°C 68% 1.0 mph SSW1.6 kmh SSW 4.0 mph6.4 kmh 29.87 in1011.5 mb 0.00 in0.0 mm 0.00 in0.0 mm 0.01 in0.3 mm
03:00 PM 85.2°F29.6°C 73.5°F23.1°C 68% 1.0 mph SSE1.6 kmh SSE 6.0 mph9.7 kmh 29.86 in1011.2 mb 0.00 in0.0 mm 0.00 in0.0 mm 0.01 in0.3 mm
03:10 PM 86.0°F30.0°C 73.3°F22.9°C 66% 3.0 mph S4.8 kmh S 3.0 mph4.8 kmh 29.87 in1011.5 mb 0.00 in0.0 mm 0.00 in0.0 mm 0.01 in0.3 mm
03:20 PM 85.5°F29.7°C 72.4°F22.4°C 65% Calm Calm 7.0 mph11.3 kmh 29.87 in1011.5 mb 0.00 in0.0 mm 0.00 in0.0 mm 0.01 in0.3 mm
03:30 PM 86.1°F30.1°C 72.0°F22.2°C 63% Calm Calm 6.0 mph9.7 kmh 29.86 in1011.2 mb 0.00 in0.0 mm 0.00 in0.0 mm 0.01 in0.3 mm
03:40 PM 86.2°F30.1°C 71.7°F22.1°C 62% Calm Calm 6.0 mph9.7 kmh 29.86 in1011.2 mb 0.00 in0.0 mm 0.00 in0.0 mm 0.01 in0.3 mm
03:50 PM 86.1°F30.1°C 71.6°F22.0°C 62% Calm Calm 5.0 mph8.0 kmh 29.86 in1011.2 mb 0.00 in0.0 mm 0.00 in0.0 mm 0.01 in0.3 mm
04:00 PM 87.1°F30.6°C 71.5°F21.9°C 60% 4.0 mph SSW6.4 kmh SSW 11.0 mph17.7 kmh 29.85 in1010.8 mb 0.00 in0.0 mm 0.00 in0.0 mm 0.01 in0.3 mm
04:10 PM 87.0°F30.6°C 72.4°F22.4°C 62% Calm Calm 5.0 mph8.0 kmh 29.85 in1010.8 mb 0.00 in0.0 mm 0.00 in0.0 mm 0.01 in0.3 mm
04:20 PM 87.7°F30.9°C 72.6°F22.6°C 61% 1.0 mph SW1.6 kmh SW 5.0 mph8.0 kmh 29.85 in1010.8 mb 0.00 in0.0 mm 0.00 in0.0 mm 0.01 in0.3 mm
04:30 PM 88.1°F31.2°C 72.0°F22.2°C 59% Calm Calm 5.0 mph8.0 kmh 29.85 in1010.8 mb 0.00 in0.0 mm 0.00 in0.0 mm 0.01 in0.3 mm
04:40 PM 87.9°F31.1°C 71.8°F22.1°C 59% Calm Calm 7.0 mph11.3 kmh 29.85 in1010.8 mb 0.00 in0.0 mm 0.00 in0.0 mm 0.01 in0.3 mm
04:50 PM 87.6°F30.9°C 72.5°F22.5°C 61% 1.0 mph WSW1.6 kmh WSW 6.0 mph9.7 kmh 29.84 in1010.5 mb 0.00 in0.0 mm 0.00 in0.0 mm 0.01 in0.3 mm
05:00 PM 88.0°F31.1°C 72.9°F22.7°C 61% 2.0 mph SW3.2 kmh SW 6.0 mph9.7 kmh 29.84 in1010.5 mb 0.00 in0.0 mm 0.00 in0.0 mm 0.01 in0.3 mm
05:10 PM 88.3°F31.3°C 73.2°F22.9°C 61% 3.0 mph SW4.8 kmh SW 9.0 mph14.5 kmh 29.84 in1010.5 mb 0.00 in0.0 mm 0.00 in0.0 mm 0.01 in0.3 mm
05:20 PM 88.1°F31.2°C 72.5°F22.5°C 60% 2.0 mph SW3.2 kmh SW 7.0 mph11.3 kmh 29.84 in1010.5 mb 0.00 in0.0 mm 0.00 in0.0 mm 0.01 in0.3 mm
05:30 PM 86.8°F30.4°C 72.2°F22.3°C 62% Calm Calm 8.0 mph12.9 kmh 29.84 in1010.5 mb 0.00 in0.0 mm 0.00 in0.0 mm 0.01 in0.3 mm
05:40 PM 86.2°F30.1°C 72.6°F22.6°C 64% Calm Calm 7.0 mph11.3 kmh 29.85 in1010.8 mb 0.00 in0.0 mm 0.00 in0.0 mm 0.01 in0.3 mm
05:50 PM 87.1°F30.6°C 73.0°F22.8°C 63% 2.0 mph SSW3.2 kmh SSW 11.0 mph17.7 kmh 29.84 in1010.5 mb 0.00 in0.0 mm 0.00 in0.0 mm 0.01 in0.3 mm
06:00 PM 87.5°F30.8°C 73.4°F23.0°C 63% 2.0 mph S3.2 kmh S 11.0 mph17.7 kmh 29.85 in1010.8 mb 0.00 in0.0 mm 0.00 in0.0 mm 0.01 in0.3 mm
06:10 PM 86.8°F30.4°C 72.2°F22.3°C 62% 1.0 mph SW1.6 kmh SW 11.0 mph17.7 kmh 29.84 in1010.5 mb 0.00 in0.0 mm 0.00 in0.0 mm 0.01 in0.3 mm
06:20 PM 86.0°F30.0°C 72.4°F22.4°C 64% 2.0 mph SW3.2 kmh SW 4.0 mph6.4 kmh 29.85 in1010.8 mb 0.00 in0.0 mm 0.00 in0.0 mm 0.01 in0.3 mm
06:30 PM 85.8°F29.9°C 72.7°F22.6°C 65% Calm Calm 5.0 mph8.0 kmh 29.85 in1010.8 mb 0.00 in0.0 mm 0.00 in0.0 mm 0.01 in0.3 mm
06:40 PM 85.9°F29.9°C 73.7°F23.2°C 67% Calm Calm 4.0 mph6.4 kmh 29.85 in1010.8 mb 0.00 in0.0 mm 0.00 in0.0 mm 0.01 in0.3 mm
06:50 PM 84.2°F29.0°C 72.9°F22.7°C 69% 1.0 mph SE1.6 kmh SE 9.0 mph14.5 kmh 29.85 in1010.8 mb 0.00 in0.0 mm 0.00 in0.0 mm 0.01 in0.3 mm
07:00 PM 81.9°F27.7°C 71.6°F22.0°C 71% Calm Calm 8.0 mph12.9 kmh 29.85 in1010.8 mb 0.00 in0.0 mm 0.00 in0.0 mm 0.01 in0.3 mm
07:10 PM 80.8°F27.1°C 71.3°F21.8°C 73% 9.0 mph N14.5 kmh N 12.0 mph19.3 kmh 29.86 in1011.2 mb 0.00 in0.0 mm 0.00 in0.0 mm 0.01 in0.3 mm
07:20 PM 79.7°F26.5°C 71.1°F21.7°C 75% 2.0 mph E3.2 kmh E 7.0 mph11.3 kmh 29.86 in1011.2 mb 0.00 in0.0 mm 0.00 in0.0 mm 0.01 in0.3 mm
07:30 PM 78.0°F25.6°C 71.0°F21.7°C 79% 3.0 mph ESE4.8 kmh ESE 7.0 mph11.3 kmh 29.87 in1011.5 mb 0.13 in3.3 mm 0.78 in19.8 mm 0.14 in3.6 mm
07:40 PM 75.2°F24.0°C 69.7°F20.9°C 83% Calm Calm 10.0 mph16.1 kmh 29.86 in1011.2 mb 0.17 in4.3 mm 0.24 in6.1 mm 0.18 in4.6 mm
07:50 PM 74.6°F23.7°C 69.5°F20.8°C 84% 6.0 mph NNW9.7 kmh NNW 15.0 mph24.1 kmh 29.88 in1011.9 mb 0.17 in4.3 mm 0.00 in0.0 mm 0.18 in4.6 mm
08:00 PM 74.4°F23.6°C 69.6°F20.9°C 85% 4.0 mph N6.4 kmh N 11.0 mph17.7 kmh 29.88 in1011.9 mb 0.17 in4.3 mm 0.00 in0.0 mm 0.18 in4.6 mm
08:10 PM 74.3°F23.5°C 69.5°F20.8°C 85% 7.0 mph NNE11.3 kmh NNE 11.0 mph17.7 kmh 29.88 in1011.9 mb 0.17 in4.3 mm 0.00 in0.0 mm 0.18 in4.6 mm
08:20 PM 74.2°F23.4°C 69.4°F20.8°C 85% 9.0 mph ENE14.5 kmh ENE 10.0 mph16.1 kmh 29.89 in1012.2 mb 0.17 in4.3 mm 0.00 in0.0 mm 0.18 in4.6 mm
08:30 PM 73.7°F23.2°C 68.9°F20.5°C 85% Calm Calm 10.0 mph16.1 kmh 29.89 in1012.2 mb 0.06 in1.5 mm 0.00 in0.0 mm 0.18 in4.6 mm
08:40 PM 73.4°F23.0°C 68.6°F20.3°C 85% Calm Calm 5.0 mph8.0 kmh 29.89 in1012.2 mb 0.00 in0.0 mm 0.00 in0.0 mm 0.18 in4.6 mm
08:50 PM 73.3°F22.9°C 68.5°F20.3°C 85% Calm Calm -- 29.90 in1012.5 mb 0.00 in0.0 mm 0.00 in0.0 mm 0.18 in4.6 mm
09:00 PM 73.2°F22.9°C 68.8°F20.4°C 86% Calm Calm -- 29.89 in1012.2 mb 0.00 in0.0 mm 0.00 in0.0 mm 0.18 in4.6 mm
09:10 PM 73.1°F22.8°C 68.7°F20.4°C 86% Calm Calm 1.0 mph1.6 kmh 29.89 in1012.2 mb 0.00 in0.0 mm 0.00 in0.0 mm 0.18 in4.6 mm
09:20 PM 73.1°F22.8°C 68.7°F20.4°C 86% Calm Calm 2.0 mph3.2 kmh 29.89 in1012.2 mb 0.00 in0.0 mm 0.00 in0.0 mm 0.18 in4.6 mm
09:30 PM 73.2°F22.9°C 68.8°F20.4°C 86% Calm Calm 1.0 mph1.6 kmh 29.90 in1012.5 mb 0.00 in0.0 mm 0.00 in0.0 mm 0.18 in4.6 mm
09:40 PM 73.0°F22.8°C 68.6°F20.3°C 86% Calm Calm -- 29.90 in1012.5 mb 0.00 in0.0 mm 0.00 in0.0 mm 0.18 in4.6 mm
09:50 PM 72.7°F22.6°C 68.3°F20.2°C 86% Calm Calm 1.0 mph1.6 kmh 29.91 in1012.9 mb 0.00 in0.0 mm 0.00 in0.0 mm 0.18 in4.6 mm
10:00 PM 72.6°F22.6°C 68.5°F20.3°C 87% 4.0 mph SE6.4 kmh SE 5.0 mph8.0 kmh 29.91 in1012.9 mb 0.00 in0.0 mm 0.00 in0.0 mm 0.18 in4.6 mm
10:10 PM 72.4°F22.4°C 68.3°F20.2°C 87% 3.0 mph SSE4.8 kmh SSE 7.0 mph11.3 kmh 29.92 in1013.2 mb 0.00 in0.0 mm 0.00 in0.0 mm 0.18 in4.6 mm
10:20 PM 72.2°F22.3°C 67.8°F19.9°C 86% Calm Calm 6.0 mph9.7 kmh 29.92 in1013.2 mb 0.00 in0.0 mm 0.00 in0.0 mm 0.18 in4.6 mm
10:30 PM 72.2°F22.3°C 68.1°F20.1°C 87% Calm Calm 4.0 mph6.4 kmh 29.92 in1013.2 mb 0.00 in0.0 mm 0.00 in0.0 mm 0.18 in4.6 mm
10:40 PM 72.3°F22.4°C 68.2°F20.1°C 87% 2.0 mph SSE3.2 kmh SSE 3.0 mph4.8 kmh 29.91 in1012.9 mb 0.00 in0.0 mm 0.00 in0.0 mm 0.18 in4.6 mm
10:50 PM 72.5°F22.5°C 68.4°F20.2°C 87% Calm Calm 4.0 mph6.4 kmh 29.91 in1012.9 mb 0.01 in0.3 mm 0.06 in1.5 mm 0.19 in4.8 mm
11:00 PM 72.5°F22.5°C 68.4°F20.2°C 87% Calm Calm 2.0 mph3.2 kmh 29.91 in1012.9 mb 0.02 in0.5 mm 0.01 in0.3 mm 0.20 in5.1 mm
11:10 PM 72.3°F22.4°C 68.2°F20.1°C 87% Calm Calm -- 29.91 in1012.9 mb 0.03 in0.8 mm 0.06 in1.5 mm 0.21 in5.3 mm
11:20 PM 72.2°F22.3°C 68.1°F20.1°C 87% Calm Calm -- 29.91 in1012.9 mb 0.03 in0.8 mm 0.00 in0.0 mm 0.21 in5.3 mm
11:47 PM 72.1°F22.3°C 68.0°F20.0°C 87% Calm Calm 1.0 mph1.6 kmh 29.90 in1012.5 mb 0.03 in0.8 mm 0.00 in0.0 mm 0.21 in5.3 mm